Time;durP1;ratioP1;P1;durP2;ratioP2;P2;SDS_P1;SDS_P2;PMS_P1;PMS_P2;Temp;Humidity;BMP_temperature;BMP_pressure;BME280_temperature;BME280_humidity;BME280_pressure;Samples;Min_cycle;Max_cycle;Signal;HPM_P1;HPM_P2
2022/10/02 00:00:15;;;;;;;5.20;2.85;;;;;;;10.56;90.75;98077.13;1750379;82;27403;-70
2022/10/02 00:03:08;;;;;;;4.30;3.00;;;;;;;10.57;90.63;98084.21;1718714;82;25604;-71
2022/10/02 00:05:45;;;;;;;4.55;3.10;;;;;;;10.60;90.51;98086.30;1671041;85;25643;-69
2022/10/02 00:08:24;;;;;;;6.40;3.45;;;;;;;10.64;90.55;98081.76;1672800;85;25681;-72
2022/10/02 00:11:14;;;;;;;3.62;2.80;;;;;;;10.68;90.57;98086.03;1652996;85;25739;-69
2022/10/02 00:13:48;;;;;;;5.10;3.10;;;;;;;10.71;90.47;98085.38;1702071;84;27807;-73
2022/10/02 00:16:35;;;;;;;3.52;2.77;;;;;;;10.74;90.51;98091.57;1701787;84;25503;-70
2022/10/02 00:19:02;;;;;;;4.78;2.60;;;;;;;10.77;90.48;98090.33;1678586;84;25732;-72
2022/10/02 00:22:01;;;;;;;5.08;2.87;;;;;;;10.81;90.36;98089.66;1678430;84;25775;-70
2022/10/02 00:24:39;;;;;;;3.52;3.00;;;;;;;10.83;90.24;98090.97;1702338;84;25641;-67
2022/10/02 00:27:16;;;;;;;4.22;2.92;;;;;;;10.83;90.38;98085.48;1702282;84;27533;-64
2022/10/02 00:29:55;;;;;;;4.53;3.27;;;;;;;10.83;90.48;98091.52;1688731;84;25565;-70
2022/10/02 00:32:30;;;;;;;4.47;3.40;;;;;;;10.82;90.54;98094.82;1679288;84;25664;-70
2022/10/02 00:35:21;;;;;;;3.98;3.58;;;;;;;10.81;90.91;98111.59;1678445;84;25796;-69
2022/10/02 00:38:14;;;;;;;8.68;3.47;;;;;;;10.81;90.96;98112.97;1678441;84;25524;-69
2022/10/02 00:41:11;;;;;;;6.17;3.35;;;;;;;10.83;90.98;98110.71;1701855;84;27482;-70
2022/10/02 00:44:10;;;;;;;5.35;3.30;;;;;;;10.84;91.01;98109.01;1742569;82;25545;-69
2022/10/02 00:46:54;;;;;;;4.12;3.10;;;;;;;10.87;91.02;98110.28;1715837;82;25820;-69
2022/10/02 00:49:50;;;;;;;3.45;2.70;;;;;;;10.90;90.92;98106.88;1715406;82;25665;-69
2022/10/02 00:52:34;;;;;;;5.10;3.50;;;;;;;10.92;91.05;98114.22;1741321;82;25672;-69
2022/10/02 00:55:06;;;;;;;5.53;3.42;;;;;;;10.93;90.90;98117.19;1747071;82;27391;-67
2022/10/02 00:58:08;;;;;;;4.10;3.08;;;;;;;10.96;90.88;98119.83;1740427;81;25631;-69
2022/10/02 01:00:34;;;;;;;4.33;3.27;;;;;;;10.97;90.92;98121.45;1642813;87;25729;-67
2022/10/02 01:03:08;;;;;;;5.12;3.17;;;;;;;10.96;90.89;98130.80;1605309;87;25926;-69
2022/10/02 01:05:35;;;;;;;4.00;3.60;;;;;;;10.94;90.96;98133.08;1643279;87;25720;-67
2022/10/02 01:08:02;;;;;;;3.30;2.87;;;;;;;10.91;91.04;98146.30;1596068;87;28191;-69
2022/10/02 01:10:29;;;;;;;5.33;3.70;;;;;;;10.88;90.95;98135.99;1595745;87;25845;-70
2022/10/02 01:12:57;;;;;;;4.62;3.30;;;;;;;10.89;90.84;98149.95;1655100;84;25681;-68
2022/10/02 01:15:37;;;;;;;6.08;3.67;;;;;;;10.92;90.90;98144.38;1680580;84;26334;-67
2022/10/02 01:18:04;;;;;;;6.37;4.87;;;;;;;10.95;90.95;98144.27;1703678;84;25800;-66
2022/10/02 01:20:41;;;;;;;8.35;4.85;;;;;;;10.98;91.02;98147.17;1657318;84;26790;-67
2022/10/02 01:23:25;;;;;;;6.28;4.80;;;;;;;11.01;90.73;98145.14;1703592;84;25802;-65
2022/10/02 01:25:51;;;;;;;5.37;3.85;;;;;;;11.01;90.44;98157.48;1703969;84;25720;-68
2022/10/02 01:28:17;;;;;;;4.33;3.47;;;;;;;11.01;90.38;98164.89;1657353;84;25641;-65
2022/10/02 01:30:47;;;;;;;4.03;3.17;;;;;;;11.02;90.51;98167.30;1680416;84;25547;-64
2022/10/02 01:33:16;;;;;;;5.47;4.10;;;;;;;11.01;90.43;98173.13;1703980;84;27437;-65
2022/10/02 01:35:42;;;;;;;5.95;3.83;;;;;;;10.98;90.58;98167.73;1680394;84;25703;-66
2022/10/02 01:38:13;;;;;;;4.67;3.75;;;;;;;10.97;90.64;98177.66;1716376;82;25750;-64
2022/10/02 01:40:41;;;;;;;5.50;3.25;;;;;;;10.96;90.79;98182.88;1748841;81;34765;-65
2022/10/02 01:43:25;;;;;;;3.98;3.58;;;;;;;10.95;90.90;98179.91;1716933;82;25443;-68
2022/10/02 01:46:33;;;;;;;4.92;3.90;;;;;;;10.95;90.80;98188.14;1746614;82;27533;-69
2022/10/02 01:49:39;;;;;;;3.70;3.20;;;;;;;10.98;90.81;98193.78;1716496;82;25677;-68
2022/10/02 01:52:16;;;;;;;4.62;3.20;;;;;;;11.01;90.86;98195.88;1748310;82;25683;-68
2022/10/02 01:55:23;;;;;;;3.45;3.00;;;;;;;11.04;90.78;98206.19;1748704;82;25561;-69
2022/10/02 01:58:10;;;;;;;6.20;3.00;;;;;;;11.12;90.80;98206.47;1717106;81;25719;-69
2022/10/02 02:01:15;;;;;;;5.12;4.60;;;;;;;11.13;90.62;98209.44;1741562;82;27466;-70
2022/10/02 02:03:59;;;;;;;9.28;6.90;;;;;;;11.16;90.56;98214.27;1747950;82;27241;-70
2022/10/02 02:06:36;;;;;;;6.35;4.30;;;;;;;11.20;90.49;98219.33;1715937;82;25702;-70
2022/10/02 02:09:20;;;;;;;4.60;3.72;;;;;;;11.22;90.42;98219.00;1748159;82;26211;-69
2022/10/02 02:11:54;;;;;;;4.33;3.20;;;;;;;11.23;90.50;98226.12;1713475;82;25583;-70
2022/10/02 02:14:25;;;;;;;3.98;3.25;;;;;;;11.19;90.43;98222.42;1699758;82;27556;-66
2022/10/02 02:16:55;;;;;;;5.55;3.85;;;;;;;11.15;90.43;98219.53;1715630;82;25686;-70
2022/10/02 02:19:33;;;;;;;5.22;3.72;;;;;;;11.14;90.42;98223.41;1746127;82;25847;-68
2022/10/02 02:22:17;;;;;;;4.15;3.70;;;;;;;11.14;90.22;98226.16;1716398;82;26006;-70
2022/10/02 02:25:08;;;;;;;3.95;3.52;;;;;;;11.14;90.32;98229.68;1716783;82;25637;-67
2022/10/02 02:27:40;;;;;;;5.37;4.17;;;;;;;11.15;90.19;98232.69;1746863;82;27422;-71
2022/10/02 02:30:12;;;;;;;6.53;4.80;;;;;;;11.15;90.13;98231.31;1748304;82;25509;-70
2022/10/02 02:32:50;;;;;;;5.72;4.25;;;;;;;11.15;90.00;98228.56;1716461;82;25525;-70
2022/10/02 02:35:30;;;;;;;6.97;4.62;;;;;;;11.15;89.87;98227.75;1746389;82;26479;-67
2022/10/02 02:38:01;;;;;;;6.23;4.47;;;;;;;11.15;89.81;98235.42;1710679;82;25699;-70
2022/10/02 02:40:32;;;;;;;4.60;3.95;;;;;;;11.14;89.75;98234.38;1716666;82;27268;-69
2022/10/02 02:43:05;;;;;;;5.23;4.37;;;;;;;11.10;89.79;98243.00;1748950;82;25730;-69
2022/10/02 02:45:36;;;;;;;7.00;4.10;;;;;;;11.06;89.87;98243.42;1748397;82;25695;-65
2022/10/02 02:48:17;;;;;;;4.35;3.87;;;;;;;11.01;89.96;98249.33;1712369;82;25645;-66
2022/10/02 02:50:48;;;;;;;6.33;4.70;;;;;;;10.97;89.96;98246.98;1729784;82;25470;-68
2022/10/02 02:53:17;;;;;;;;;;;;;;;10.96;89.92;98245.94;1718609;82;28104;-67
2022/10/02 02:55:55;;;;;;;8.13;5.03;;;;;;;10.96;89.89;98252.80;1748396;81;25903;-68
2022/10/02 02:58:47;;;;;;;5.92;5.00;;;;;;;10.96;89.98;98254.16;1716496;81;25768;-67
2022/10/02 03:01:13;;;;;;;6.50;4.33;;;;;;;11.02;89.99;98261.09;1747865;82;25647;-70
2022/10/02 03:03:39;;;;;;;4.72;3.80;;;;;;;11.02;89.90;98263.27;1717199;82;25665;-70
2022/10/02 03:06:32;;;;;;;7.40;3.50;;;;;;;11.04;89.84;98267.88;1717012;82;27477;-70
2022/10/02 03:09:00;;;;;;;4.15;3.67;;;;;;;11.06;89.85;98271.66;1747913;82;25436;-70
2022/10/02 03:12:02;;;;;;;4.00;3.30;;;;;;;11.09;89.75;98277.86;1716503;82;25741;-70
2022/10/02 03:14:52;;;;;;;4.22;3.30;;;;;;;11.10;89.82;98271.24;1747645;80;25609;-70
2022/10/02 03:17:35;;;;;;;5.50;3.90;;;;;;;11.11;89.75;98272.05;1781778;80;25653;-70
2022/10/02 03:20:38;;;;;;;4.10;3.25;;;;;;;11.09;89.76;98281.16;1748753;80;27346;-70
2022/10/02 03:23:15;;;;;;;5.17;3.67;;;;;;;11.06;89.80;98279.08;1748417;80;25691;-70
2022/10/02 03:26:02;;;;;;;3.70;3.40;;;;;;;11.02;89.70;98280.28;1748968;80;25470;-71
2022/10/02 03:28:37;;;;;;;8.35;4.53;;;;;;;11.00;89.62;98281.19;1747992;80;25605;-71
2022/10/02 03:31:04;;;;;;;5.92;4.47;;;;;;;11.00;89.71;98278.45;1748956;80;25469;-70
2022/10/02 03:33:32;;;;;;;6.12;5.50;;;;;;;11.03;89.69;98286.02;1724012;80;27694;-70
2022/10/02 03:36:00;;;;;;;7.50;6.80;;;;;;;11.04;89.68;98281.59;1724623;80;25510;-65
2022/10/02 03:38:28;;;;;;;6.72;4.60;;;;;;;11.06;89.53;98284.56;1749113;80;25736;-70
2022/10/02 03:40:58;;;;;;;3.70;3.12;;;;;;;11.06;89.45;98286.74;1748601;80;25507;-70
2022/10/02 03:43:27;;;;;;;3.85;3.25;;;;;;;11.07;89.43;98286.97;1749692;80;25590;-67
2022/10/02 03:45:54;;;;;;;4.03;3.42;;;;;;;11.07;89.22;98286.97;1723966;80;27448;-68
2022/10/02 03:48:20;;;;;;;3.65;3.20;;;;;;;11.07;89.11;98297.12;1697030;80;25703;-70
2022/10/02 03:50:49;;;;;;;5.50;3.52;;;;;;;11.03;88.91;98296.99;1724337;80;25459;-69
2022/10/02 03:53:19;;;;;;;5.75;4.05;;;;;;;11.00;89.05;98296.27;1749210;80;25551;-70
2022/10/02 03:55:59;;;;;;;5.97;4.03;;;;;;;10.99;89.06;98298.75;1781764;80;25665;-68
2022/10/02 03:58:26;;;;;;;4.70;4.20;;;;;;;10.97;89.01;98296.92;1765840;80;27295;-69
2022/10/02 04:01:03;;;;;;;8.75;3.95;;;;;;;10.96;89.05;98301.59;1724495;80;25748;-71
2022/10/02 04:03:45;;;;;;;6.28;4.00;;;;;;;10.96;88.93;98312.55;1749060;80;25459;-67
2022/10/02 04:06:17;;;;;;;5.85;3.60;;;;;;;10.99;88.96;98319.31;1781500;80;25588;-69
2022/10/02 04:08:57;;;;;;;5.22;3.58;;;;;;;11.00;88.95;98325.06;1748737;80;25692;-68
2022/10/02 04:11:40;;;;;;;5.83;3.80;;;;;;;10.97;89.32;98328.45;1749252;80;32841;-67
2022/10/02 04:14:24;;;;;;;4.37;3.60;;;;;;;10.99;89.27;98328.91;1773551;80;25656;-70
2022/10/02 04:17:06;;;;;;;5.65;4.55;;;;;;;10.98;89.32;98324.02;1770476;80;25649;-68
2022/10/02 04:20:02;;;;;;;6.15;5.55;;;;;;;11.03;89.13;98331.27;1699775;84;25819;-70
2022/10/02 04:22:42;;;;;;;6.97;4.90;;;;;;;11.02;89.13;98331.00;1698872;84;25816;-69
2022/10/02 04:25:24;;;;;;;5.47;4.20;;;;;;;10.99;88.99;98331.09;1699872;84;27518;-70
2022/10/02 04:28:16;;;;;;;5.35;4.83;;;;;;;10.96;88.92;98336.41;1676810;84;25555;-70
2022/10/02 04:30:42;;;;;;;6.67;4.92;;;;;;;10.90;89.09;98335.23;1699837;84;25721;-70
2022/10/02 04:33:21;;;;;;;6.78;4.70;;;;;;;10.90;89.03;98340.71;1699567;84;25617;-66
2022/10/02 04:36:21;;;;;;;5.87;4.65;;;;;;;10.90;89.06;98338.52;1676417;84;25551;-70
2022/10/02 04:39:37;;;;;;;5.25;3.75;;;;;;;10.93;89.02;98342.58;1700015;84;27479;-70
2022/10/02 04:42:15;;;;;;;3.90;3.50;;;;;;;10.95;88.85;98343.03;1699900;84;25496;-67
2022/10/02 04:45:11;;;;;;;6.10;3.75;;;;;;;10.96;88.90;98350.13;1699896;84;25776;-71
2022/10/02 04:48:12;;;;;;;3.90;3.25;;;;;;;10.98;88.91;98354.17;1699856;84;26342;-72
2022/10/02 04:51:24;;;;;;;4.85;3.25;;;;;;;11.02;88.74;98355.13;1699729;84;25685;-71
2022/10/02 04:54:20;;;;;;;5.20;3.52;;;;;;;11.01;88.52;98363.13;1699717;84;27359;-71
2022/10/02 04:57:00;;;;;;;7.37;4.37;;;;;;;10.96;88.37;98372.88;1732336;81;25892;-71
2022/10/02 04:59:52;;;;;;;6.45;5.67;;;;;;;10.91;88.34;98372.47;1769567;80;25675;-68
2022/10/02 05:02:47;;;;;;;6.22;5.58;;;;;;;10.87;88.30;98372.88;1771044;81;25605;-69
2022/10/02 05:05:46;;;;;;;6.97;4.65;;;;;;;10.86;88.18;98381.42;1746412;81;25613;-69
2022/10/02 05:08:44;;;;;;;3.67;3.25;;;;;;;10.85;88.28;98385.31;1764548;80;27378;-70
2022/10/02 05:11:40;;;;;;;7.20;3.00;;;;;;;10.86;88.27;98390.47;1769846;80;25667;-68
2022/10/02 05:14:58;;;;;;;3.37;2.80;;;;;;;10.86;88.02;98390.47;1770513;80;25686;-70
2022/10/02 05:17:38;;;;;;;5.55;2.65;;;;;;;10.90;88.03;98394.17;1768149;80;25685;-67
2022/10/02 05:20:25;;;;;;;4.35;2.83;;;;;;;10.95;87.87;98393.76;1770749;80;25734;-69
2022/10/02 05:23:02;;;;;;;4.40;2.77;;;;;;;10.96;87.62;98398.92;1746561;81;28116;-71
2022/10/02 05:25:50;;;;;;;3.72;3.12;;;;;;;10.94;87.95;98400.37;1770490;80;25676;-73
2022/10/02 05:28:43;;;;;;;6.08;4.15;;;;;;;10.94;88.02;98397.64;1759296;81;25482;-71
2022/10/02 05:31:20;;;;;;;6.65;3.52;;;;;;;10.94;87.92;98405.28;1747340;80;25904;-68
2022/10/02 05:34:22;;;;;;;3.92;3.42;;;;;;;10.93;87.99;98409.16;1746405;81;25544;-70
2022/10/02 05:37:03;;;;;;;6.83;4.65;;;;;;;10.91;87.79;98407.32;1702191;83;27545;-71
2022/10/02 05:39:37;;;;;;;5.78;4.17;;;;;;;10.88;87.60;98412.86;1701358;84;25864;-68
2022/10/02 05:42:32;;;;;;;7.92;5.08;;;;;;;10.86;87.44;98412.95;1701887;84;25702;-72
2022/10/02 05:45:27;;;;;;;9.48;5.05;;;;;;;10.85;87.45;98414.09;1702057;84;26084;-70
2022/10/02 05:48:04;;;;;;;7.05;4.10;;;;;;;10.87;87.29;98421.41;1678053;84;25693;-72
2022/10/02 05:50:34;;;;;;;9.50;5.42;;;;;;;10.88;87.33;98414.82;1670322;84;27262;-70
2022/10/02 05:53:06;;;;;;;8.25;5.70;;;;;;;10.91;87.33;98423.77;1678371;84;25804;-72
2022/10/02 05:55:40;;;;;;;7.92;5.33;;;;;;;10.96;87.34;98421.41;1677978;84;25636;-72
2022/10/02 05:58:24;;;;;;;5.87;3.98;;;;;;;11.01;87.59;98432.22;1701896;84;25810;-69
2022/10/02 06:01:24;;;;;;;5.35;3.62;;;;;;;11.07;87.62;98429.56;1664669;85;25805;-73
2022/10/02 06:04:16;;;;;;;4.67;3.58;;;;;;;11.11;87.34;98435.22;1661072;85;27644;-69
2022/10/02 06:06:50;;;;;;;6.85;3.80;;;;;;;11.16;87.25;98436.41;1688101;85;25503;-73
2022/10/02 06:09:28;;;;;;;6.17;3.77;;;;;;;11.25;87.21;98435.03;1662980;85;25702;-71
2022/10/02 06:12:17;;;;;;;4.58;3.35;;;;;;;11.31;86.87;98439.23;1741880;82;26182;-72
2022/10/02 06:14:49;;;;;;;4.15;3.27;;;;;;;11.34;86.31;98439.95;1721820;82;25315;-73
2022/10/02 06:17:26;;;;;;;4.97;3.27;;;;;;;11.38;85.79;98446.42;1746064;81;27383;-73
2022/10/02 06:20:35;;;;;;;7.78;4.97;;;;;;;11.39;85.33;98452.14;1708189;82;25679;-73
2022/10/02 06:23:15;;;;;;;5.90;3.90;;;;;;;11.43;86.02;98449.56;1708359;82;25545;-74
2022/10/02 06:25:49;;;;;;;7.35;4.58;;;;;;;11.42;85.70;98447.94;1733039;82;25496;-68
2022/10/02 06:28:20;;;;;;;8.13;5.03;;;;;;;11.39;85.74;98449.40;1708529;82;25758;-67
2022/10/02 06:30:57;;;;;;;6.78;3.85;;;;;;;11.39;85.96;98454.89;1732797;82;27309;-74
2022/10/02 06:33:25;;;;;;;6.50;4.45;;;;;;;11.41;85.37;98448.52;1732676;82;25753;-72
2022/10/02 06:36:08;;;;;;;7.53;4.40;;;;;;;11.50;85.64;98455.92;1684538;82;25504;-72
2022/10/02 06:38:51;;;;;;;8.33;4.78;;;;;;;11.53;85.18;98450.59;1746125;81;25454;-72
2022/10/02 06:41:55;;;;;;;8.55;4.92;;;;;;;11.64;85.98;98462.59;1743127;81;25500;-69
2022/10/02 06:44:47;;;;;;;8.50;5.10;;;;;;;11.76;85.31;98464.11;1717674;82;27576;-68
2022/10/02 06:47:45;;;;;;;8.50;5.17;;;;;;;11.95;85.74;98471.17;1742592;82;25484;-71
2022/10/02 06:50:44;;;;;;;6.50;3.80;;;;;;;12.05;84.87;98470.81;1717592;82;25555;-76
2022/10/02 06:53:46;;;;;;;6.12;3.00;;;;;;;12.11;84.87;98472.84;1742580;82;25664;-76
2022/10/02 06:56:24;;;;;;;;;;;;;;;12.18;85.02;98472.34;1719267;82;25539;-72
2022/10/02 06:59:24;;;;;;;3.67;3.00;;;;;;;12.27;85.25;98467.59;1712438;83;27811;-75
2022/10/02 07:02:08;;;;;;;5.28;3.20;;;;;;;12.38;84.40;98473.53;1687329;83;26491;-74
2022/10/02 07:05:16;;;;;;;4.50;2.80;;;;;;;12.42;83.52;98473.12;1713019;83;25822;-73
2022/10/02 07:07:54;;;;;;;4.50;2.77;;;;;;;12.50;83.93;98475.59;1712982;83;26323;-72
2022/10/02 07:10:42;;;;;;;6.87;4.35;;;;;;;12.61;83.20;98473.84;1689086;83;25760;-73
2022/10/02 07:13:29;;;;;;;6.33;4.87;;;;;;;12.72;83.44;98472.30;1712200;83;27578;-73
2022/10/02 07:16:16;;;;;;;5.03;3.20;;;;;;;12.87;83.50;98484.66;1712913;83;25737;-73
2022/10/02 07:19:16;;;;;;;5.30;2.98;;;;;;;13.02;83.37;98490.73;1706502;83;25518;-74
2022/10/02 07:21:56;;;;;;;4.87;2.85;;;;;;;13.20;82.91;98493.34;1669310;84;25904;-74
2022/10/02 07:24:48;;;;;;;5.35;3.00;;;;;;;13.27;81.63;98486.16;1606642;87;25694;-72
2022/10/02 07:27:37;;;;;;;6.97;2.90;;;;;;;13.37;82.00;98491.02;1577987;89;28147;-71
2022/10/02 07:30:11;;;;;;;3.52;2.55;;;;;;;13.56;81.89;98496.09;1598036;89;25544;-73
2022/10/02 07:32:50;;;;;;;3.55;2.90;;;;;;;13.81;81.60;98496.16;1578385;89;25773;-72
2022/10/02 07:35:31;;;;;;;6.10;2.72;;;;;;;13.96;80.65;98493.32;1579930;88;25670;-71
2022/10/02 07:38:10;;;;;;;;;;;;;;;14.16;79.37;98487.52;1627545;88;25710;-71
2022/10/02 07:40:54;;;;;;;3.40;2.70;;;;;;;14.29;78.45;98497.19;1625123;88;27471;-71
2022/10/02 07:43:40;;;;;;;4.22;2.40;;;;;;;14.53;79.21;98499.16;1624942;88;25829;-65
2022/10/02 07:46:21;;;;;;;4.42;2.75;;;;;;;14.84;78.21;98497.55;1625402;88;25679;-71
2022/10/02 07:49:16;;;;;;;4.90;3.00;;;;;;;15.13;78.24;98485.44;1625081;88;25635;-67
2022/10/02 07:52:02;;;;;;;5.28;2.92;;;;;;;15.41;75.38;98490.20;1599823;88;25761;-70
2022/10/02 07:54:46;;;;;;;5.33;2.62;;;;;;;15.63;74.19;98495.52;1624651;88;27473;-70
2022/10/02 07:57:38;;;;;;;2.20;1.72;;;;;;;15.92;74.92;98491.56;1625350;88;25710;-69
2022/10/02 08:00:12;;;;;;;4.15;2.17;;;;;;;16.22;72.48;98489.58;1645332;85;25779;-70
2022/10/02 08:03:02;;;;;;;7.05;2.10;;;;;;;16.36;70.07;98483.03;1740400;81;25877;-67
2022/10/02 08:05:46;;;;;;;3.12;1.98;;;;;;;16.51;71.85;98484.75;1728025;81;25654;-72
2022/10/02 08:08:49;;;;;;;3.12;2.15;;;;;;;16.74;71.33;98488.25;1753896;81;28115;-71
2022/10/02 08:11:39;;;;;;;4.00;2.15;;;;;;;17.12;72.60;98497.02;1732017;81;25750;-65
2022/10/02 08:14:33;;;;;;;5.70;1.97;;;;;;;17.44;70.39;98491.36;1732467;81;25665;-70
2022/10/02 08:17:24;;;;;;;5.70;1.40;;;;;;;17.67;66.34;98478.97;1753461;81;25597;-66
2022/10/02 08:19:52;;;;;;;2.45;1.25;;;;;;;17.86;64.21;98487.62;1753643;81;25464;-67
2022/10/02 08:22:31;;;;;;;3.37;1.40;;;;;;;17.97;63.28;98476.16;1753626;81;27630;-70
2022/10/02 08:25:16;;;;;;;3.72;1.50;;;;;;;18.20;62.71;98470.42;1709181;81;25885;-72
2022/10/02 08:27:59;;;;;;;4.08;1.50;;;;;;;18.34;63.51;98470.67;1752729;81;25466;-72
2022/10/02 08:30:26;;;;;;;2.75;1.40;;;;;;;18.68;63.00;98472.19;1753269;81;25580;-72
2022/10/02 08:32:53;;;;;;;3.02;1.45;;;;;;;18.70;59.26;98473.20;1668598;81;25722;-72
2022/10/02 08:35:21;;;;;;;3.25;1.30;;;;;;;18.66;61.30;98467.61;1708318;81;29175;-71
2022/10/02 08:37:59;;;;;;;2.37;1.50;;;;;;;18.80;60.35;98468.39;1684479;81;25942;-72
2022/10/02 08:41:04;;;;;;;2.75;1.50;;;;;;;18.98;60.37;98467.86;1753268;81;25690;-72
2022/10/02 08:44:26;;;;;;;5.62;1.30;;;;;;;19.11;57.61;98460.72;1753233;81;25630;-72
2022/10/02 08:47:32;;;;;;;3.27;1.20;;;;;;;19.41;59.53;98463.48;1714862;82;25536;-71
2022/10/02 08:50:19;;;;;;;3.25;1.30;;;;;;;19.37;56.40;98459.06;1715028;82;27308;-70
2022/10/02 08:53:17;;;;;;;2.45;1.60;;;;;;;19.10;57.46;98466.85;1714084;83;25500;-71
2022/10/02 08:56:18;;;;;;;2.77;1.62;;;;;;;19.08;59.37;98464.22;1689976;83;25796;-71
2022/10/02 08:59:28;;;;;;;;;;;;;;;18.78;58.71;98460.23;1714922;83;25762;-72
2022/10/02 09:02:35;;;;;;;3.08;1.80;;;;;;;18.82;59.61;98462.47;1711289;83;25716;-71
2022/10/02 09:05:10;;;;;;;2.10;1.40;;;;;;;19.18;59.22;98463.00;1670873;85;27546;-69
2022/10/02 09:08:15;;;;;;;3.90;1.60;;;;;;;19.35;56.23;98460.02;1671096;85;26390;-66
2022/10/02 09:11:23;;;;;;;2.47;1.17;;;;;;;19.40;55.47;98453.53;1670820;85;25794;-70
2022/10/02 09:14:32;;;;;;;2.40;1.20;;;;;;;19.52;55.64;98455.24;1644823;85;26385;-68
2022/10/02 09:17:29;;;;;;;2.05;0.80;;;;;;;19.79;51.67;98452.95;1570725;89;25795;-68
2022/10/02 09:20:06;;;;;;;2.25;1.10;;;;;;;19.89;52.31;98448.70;1570112;91;26865;-68
2022/10/02 09:22:54;;;;;;;;;;;;;;;20.16;53.98;98445.78;1578525;91;25901;-66
2022/10/02 09:25:37;;;;;;;2.05;1.30;;;;;;;20.54;53.46;98440.11;1556742;91;25544;-67
2022/10/02 09:28:31;;;;;;;1.22;0.88;;;;;;;21.09;53.97;98448.22;1562893;90;25801;-66
2022/10/02 09:31:09;;;;;;;1.80;1.17;;;;;;;21.18;49.88;98437.52;1581439;90;25600;-66
2022/10/02 09:33:59;;;;;;;2.85;1.10;;;;;;;21.28;50.92;98438.77;1562401;90;27617;-66
2022/10/02 09:36:49;;;;;;;2.15;1.20;;;;;;;21.51;50.25;98432.08;1578940;88;25580;-65
2022/10/02 09:39:30;;;;;;;2.15;1.15;;;;;;;22.00;48.86;98430.98;1592749;88;25519;-66
2022/10/02 09:42:22;;;;;;;2.37;0.98;;;;;;;22.25;49.13;98421.22;1592849;88;25570;-65
2022/10/02 09:45:14;;;;;;;3.08;1.15;;;;;;;22.52;47.45;98423.61;1593275;88;25727;-66
2022/10/02 09:48:00;;;;;;;2.77;1.32;;;;;;;22.58;45.45;98414.81;1592944;88;27601;-65
2022/10/02 09:51:03;;;;;;;2.70;1.02;;;;;;;22.55;48.13;98421.41;1614630;87;25799;-65
2022/10/02 09:54:02;;;;;;;3.00;1.10;;;;;;;22.92;47.49;98424.95;1651054;83;25740;-66
2022/10/02 09:56:39;;;;;;;2.17;0.80;;;;;;;23.44;44.40;98424.16;1719196;83;25583;-66
2022/10/02 09:59:37;;;;;;;3.65;0.82;;;;;;;23.54;43.91;98429.48;1719140;83;25692;-65
2022/10/02 10:02:15;;;;;;;3.08;1.45;;;;;;;23.77;44.57;98422.56;1718068;83;27463;-64
2022/10/02 10:05:18;;;;;;;3.10;1.60;;;;;;;24.08;43.69;98427.55;1706419;81;26238;-65
2022/10/02 10:08:28;;;;;;;2.85;1.30;;;;;;;24.42;42.64;98415.70;1739150;81;25618;-65
2022/10/02 10:11:37;;;;;;;2.90;1.30;;;;;;;24.55;42.28;98415.96;1739581;81;25695;-65
2022/10/02 10:14:32;;;;;;;2.58;1.27;;;;;;;24.50;42.02;98414.44;1767093;81;25508;-65
2022/10/02 10:17:40;;;;;;;3.62;1.17;;;;;;;24.47;41.02;98410.25;1732093;81;27476;-65
2022/10/02 10:20:29;;;;;;;3.02;1.30;;;;;;;24.68;40.58;98406.44;1732035;81;25633;-66
2022/10/02 10:23:13;;;;;;;2.92;0.90;;;;;;;24.80;41.72;98407.91;1752791;81;25465;-65
2022/10/02 10:26:01;;;;;;;3.15;1.05;;;;;;;24.95;40.82;98402.96;1753620;81;25478;-66
2022/10/02 10:28:51;;;;;;;2.55;1.10;;;;;;;24.93;39.53;98406.18;1753381;81;25609;-63
2022/10/02 10:31:38;;;;;;;2.52;1.32;;;;;;;24.41;41.45;98409.92;1731931;81;27588;-63
2022/10/02 10:34:13;;;;;;;3.67;2.12;;;;;;;23.86;42.12;98408.13;1730921;81;25766;-65
2022/10/02 10:40:37;;;;;;;4.65;2.30;;;;;;;23.53;43.14;98407.73;1753347;81;25639;-64
2022/10/02 10:43:41;;;;;;;6.00;4.33;;;;;;;23.46;43.80;98403.59;1753434;81;25651;-65
2022/10/02 10:47:00;;;;;;;3.92;2.42;;;;;;;23.18;44.94;98408.08;1731976;81;28303;-64
2022/10/02 10:50:06;;;;;;;55.25;35.08;;;;;;;22.53;45.30;98409.03;1753788;81;27636;-64
2022/10/02 10:53:02;;;;;;;11.90;8.33;;;;;;;21.83;46.17;98402.68;1752513;81;25403;-64
2022/10/02 10:55:58;;;;;;;9.30;7.95;;;;;;;21.29;47.76;98406.91;1753279;81;25643;-63
2022/10/02 10:58:33;;;;;;;8.35;7.22;;;;;;;20.75;47.88;98408.05;1752147;81;25595;-64
2022/10/02 11:01:17;;;;;;;4.17;2.60;;;;;;;20.37;48.31;98395.07;1732179;81;27329;-64
2022/10/02 11:04:15;;;;;;;5.50;2.98;;;;;;;20.09;49.17;98400.62;1732072;81;25710;-64
2022/10/02 11:07:09;;;;;;;6.08;4.42;;;;;;;19.83;50.04;98400.17;1732150;81;25448;-64
2022/10/02 11:10:08;;;;;;;3.72;2.52;;;;;;;19.59;51.27;98398.95;1731608;81;25736;-64
2022/10/02 11:13:01;;;;;;;4.90;2.08;;;;;;;19.30;51.23;98393.89;1732329;81;25443;-64
2022/10/02 11:15:57;;;;;;;2.80;1.62;;;;;;;18.99;51.27;98401.42;1753789;81;27407;-64
2022/10/02 11:18:41;;;;;;;4.33;1.98;;;;;;;18.79;52.24;98404.92;1754162;81;25444;-64
2022/10/02 11:21:19;;;;;;;6.70;2.20;;;;;;;18.63;51.51;98398.17;1735380;81;25557;-66
2022/10/02 11:24:09;;;;;;;3.98;1.60;;;;;;;18.68;51.91;98405.58;1753036;81;25469;-65
2022/10/02 11:27:16;;;;;;;4.60;1.72;;;;;;;18.64;50.80;98404.73;1754305;81;25404;-66
2022/10/02 11:29:54;;;;;;;3.90;1.10;;;;;;;18.72;51.75;98410.38;1732397;81;28336;-63
2022/10/02 11:32:58;;;;;;;3.00;1.27;;;;;;;18.71;50.76;98401.24;1759126;81;25676;-66
2022/10/02 11:36:01;;;;;;;1.40;0.88;;;;;;;18.82;52.16;98398.62;1734996;81;25654;-65
2022/10/02 11:39:05;;;;;;;4.72;1.27;;;;;;;18.75;50.57;98391.59;1696415;83;25879;-65
2022/10/02 11:41:43;;;;;;;2.80;1.20;;;;;;;18.60;50.98;98396.14;1649993;84;25907;-66
2022/10/02 11:44:49;;;;;;;1.98;1.17;;;;;;;18.58;51.05;98399.30;1696255;84;26347;-66
2022/10/02 11:47:36;;;;;;;4.12;1.27;;;;;;;18.61;51.90;98402.70;1672854;84;25714;-66
2022/10/02 11:50:33;;;;;;;4.70;1.70;;;;;;;18.47;52.07;98396.94;1695319;84;25540;-68
2022/10/02 11:53:39;;;;;;;3.80;1.57;;;;;;;18.41;52.69;98397.27;1695970;84;25802;-67
2022/10/02 11:56:21;;;;;;;3.52;1.90;;;;;;;18.35;52.96;98394.60;1696564;84;25627;-66
2022/10/02 11:59:17;;;;;;;4.40;2.10;;;;;;;18.34;54.16;98386.08;1694867;84;26876;-67
2022/10/02 12:02:09;;;;;;;5.17;2.02;;;;;;;18.26;54.21;98388.52;1696302;84;25681;-67
2022/10/02 12:04:47;;;;;;;3.95;1.98;;;;;;;18.34;54.54;98379.72;1696334;84;25497;-67
2022/10/02 12:07:40;;;;;;;7.47;3.33;;;;;;;18.62;54.78;98385.48;1696525;84;26445;-65
2022/10/02 12:10:32;;;;;;;7.58;2.55;;;;;;;19.47;54.36;98381.96;1672715;84;26591;-65
2022/10/02 12:13:16;;;;;;;6.37;2.40;;;;;;;20.39;52.13;98369.05;1673155;84;27918;-64
2022/10/02 12:15:48;;;;;;;8.78;3.90;;;;;;;21.34;51.24;98367.30;1725348;81;25439;-65
2022/10/02 12:18:41;;;;;;;3.17;1.90;;;;;;;21.77;49.35;98367.42;1754333;81;25472;-65
2022/10/02 12:27:35;;;;;;;18.90;9.45;;;;;;;21.75;48.66;98353.63;1633940;87;26807;-64
2022/10/02 12:30:15;;;;;;;23.98;12.20;;;;;;;21.55;49.70;98354.81;1636976;87;25504;-65
2022/10/02 12:33:07;;;;;;;6.97;3.80;;;;;;;21.53;50.09;98353.63;1617005;87;32454;-63
2022/10/02 12:36:12;;;;;;;14.55;6.25;;;;;;;21.34;49.29;98345.81;1637042;87;25775;-65
2022/10/02 12:39:02;;;;;;;5.17;3.05;;;;;;;21.21;48.43;98346.77;1636922;87;25702;-64
2022/10/02 12:42:13;;;;;;;3.20;1.43;;;;;;;21.47;47.51;98344.05;1615331;87;27416;-62
2022/10/02 12:45:01;;;;;;;5.53;2.08;;;;;;;21.34;47.63;98340.24;1637164;87;25541;-61
2022/10/02 12:47:55;;;;;;;9.50;5.12;;;;;;;21.04;49.28;98342.76;1615311;87;25762;-63
2022/10/02 12:50:33;;;;;;;5.65;3.10;;;;;;;21.16;48.73;98340.98;1615552;87;25854;-62
2022/10/02 12:53:20;;;;;;;4.95;1.80;;;;;;;21.59;48.41;98338.69;1586562;90;25754;-62
2022/10/02 12:56:03;;;;;;;4.97;2.45;;;;;;;21.58;47.49;98330.14;1583008;90;27496;-62
2022/10/02 12:59:07;;;;;;;7.42;4.22;;;;;;;21.46;47.01;98332.69;1616931;87;25804;-63
2022/10/02 13:02:06;;;;;;;8.28;4.53;;;;;;;21.39;47.03;98330.70;1631300;85;25668;-62
2022/10/02 13:04:56;;;;;;;10.88;5.97;;;;;;;21.45;44.93;98317.97;1671284;85;25578;-63
2022/10/02 13:07:54;;;;;;;9.98;4.92;;;;;;;21.51;45.72;98316.38;1695224;83;25499;-63
2022/10/02 13:10:46;;;;;;;7.42;3.98;;;;;;;21.31;45.55;98314.56;1713668;83;28714;-63